createdAt,value
2022-11-12T00:00:28.090Z,72.24
2022-11-12T00:01:28.090Z,72.53
2022-11-12T00:02:28.195Z,72.24
2022-11-12T00:03:28.085Z,72.14
2022-11-12T00:04:28.089Z,72.53
2022-11-12T00:05:28.079Z,72.53
2022-11-12T00:06:28.199Z,72.24
2022-11-12T00:07:28.080Z,72.24
2022-11-12T00:08:28.580Z,72.53
2022-11-12T00:09:28.075Z,72.14
2022-11-12T00:10:28.061Z,72.24
2022-11-12T00:11:28.067Z,72.24
2022-11-12T00:12:28.060Z,72.53
2022-11-12T00:13:28.053Z,72.24
2022-11-12T00:14:28.053Z,72.14
2022-11-12T00:15:28.072Z,72.14
2022-11-12T00:16:28.055Z,72.43
2022-11-12T00:17:28.044Z,72.53
2022-11-12T00:18:28.402Z,72.24
2022-11-12T00:19:28.043Z,72.14
2022-11-12T00:20:28.032Z,72.14
2022-11-12T00:21:28.043Z,72.43
2022-11-12T00:22:28.146Z,72.53
2022-11-12T00:23:28.020Z,72.24
2022-11-12T00:24:28.024Z,72.24
2022-11-12T00:25:28.016Z,72.24
2022-11-12T00:26:28.009Z,72.14
2022-11-12T00:27:28.015Z,72.14
2022-11-12T00:28:31.041Z,72.14
2022-11-12T00:29:28.018Z,72.14
2022-11-12T00:30:27.999Z,72.43
2022-11-12T00:31:28.003Z,72.43
2022-11-12T00:32:28.000Z,72.53
2022-11-12T00:33:27.994Z,72.24
2022-11-12T00:34:27.996Z,72.53
2022-11-12T00:35:27.999Z,72.53
2022-11-12T00:36:27.991Z,72.24
2022-11-12T00:37:27.976Z,72.24
2022-11-12T00:38:28.527Z,72.33
2022-11-12T00:39:27.989Z,72.14
2022-11-12T00:40:27.982Z,72.53
2022-11-12T00:41:27.980Z,72.24
2022-11-12T00:42:27.963Z,72.24
2022-11-12T00:43:27.969Z,72.14
2022-11-12T00:44:27.961Z,72.33
2022-11-12T00:45:27.962Z,72.53
2022-11-12T00:46:27.956Z,72.24
2022-11-12T00:47:27.946Z,72.14
2022-11-12T00:48:28.438Z,72.53
2022-11-12T00:49:27.948Z,72.53
2022-11-12T00:50:27.942Z,72.53
2022-11-12T00:51:27.951Z,72.24
2022-11-12T00:52:27.934Z,72.24
2022-11-12T00:53:27.939Z,72.33
2022-11-12T00:54:28.042Z,72.24
2022-11-12T00:55:27.924Z,72.14
2022-11-12T00:56:33.017Z,72.33
2022-11-12T00:57:27.916Z,72.24
2022-11-12T00:58:28.278Z,72.33
2022-11-12T00:59:27.924Z,72.33
2022-11-12T01:00:27.920Z,72.33
2022-11-12T01:01:27.972Z,72.33
2022-11-12T01:02:27.939Z,72.24
2022-11-12T01:03:27.924Z,72.14
2022-11-12T01:04:27.898Z,72.24
2022-11-12T01:05:27.901Z,72.05
2022-11-12T01:06:27.886Z,72.43
2022-11-12T01:07:27.885Z,72.33
2022-11-12T01:08:28.171Z,72.14
2022-11-12T01:09:27.881Z,72.43
2022-11-12T01:10:27.999Z,72.14
2022-11-12T01:11:27.886Z,72.14
2022-11-12T01:12:27.893Z,72.33
2022-11-12T01:13:27.888Z,72.43
2022-11-12T01:14:27.871Z,72.43
2022-11-12T01:15:27.866Z,72.33
2022-11-12T01:16:27.865Z,72.14
2022-11-12T01:17:27.871Z,72.33
2022-11-12T01:18:28.316Z,72.05
2022-11-12T01:19:27.855Z,72.43
2022-11-12T01:20:27.844Z,72.05
2022-11-12T01:21:27.854Z,72.43
2022-11-12T01:22:27.856Z,72.24
2022-11-12T01:23:27.849Z,72.14
2022-11-12T01:24:27.840Z,72.33
2022-11-12T01:25:27.831Z,72.43
2022-11-12T01:26:27.947Z,72.33
2022-11-12T01:27:27.830Z,72.05
2022-11-12T01:28:28.299Z,72.33
2022-11-12T01:29:27.823Z,72.14
2022-11-12T01:30:27.822Z,72.33
2022-11-12T01:31:27.812Z,72.14
2022-11-12T01:32:27.816Z,72.53
2022-11-12T01:33:27.815Z,72.33
2022-11-12T01:34:27.797Z,72.33
2022-11-12T01:35:27.804Z,72.33
2022-11-12T01:36:27.794Z,72.43
2022-11-12T01:37:27.796Z,72.14
2022-11-12T01:38:28.440Z,72.05
2022-11-12T01:39:27.790Z,72.14
2022-11-12T01:40:27.793Z,72.14
2022-11-12T01:41:27.785Z,72.24
2022-11-12T01:42:27.885Z,72.24
2022-11-12T01:43:27.775Z,72.24
2022-11-12T01:44:27.773Z,72.05
2022-11-12T01:45:27.791Z,72.33
2022-11-12T01:46:27.768Z,72.14
2022-11-12T01:47:27.774Z,72.14
2022-11-12T01:48:28.288Z,72.24
2022-11-12T01:49:27.760Z,72.33
2022-11-12T01:50:27.758Z,72.43
2022-11-12T01:51:27.750Z,72.14
2022-11-12T01:52:27.741Z,72.43
2022-11-12T01:53:27.752Z,72.43
2022-11-12T01:54:27.750Z,72.14
2022-11-12T01:55:27.745Z,72.24
2022-11-12T01:56:27.738Z,72.33
2022-11-12T01:57:33.481Z,72.20
2022-11-12T01:58:28.335Z,72.24
2022-11-12T01:59:27.726Z,72.43
2022-11-12T02:00:27.719Z,72.24
2022-11-12T02:01:27.813Z,72.43
2022-11-12T02:02:27.714Z,72.33
2022-11-12T02:03:27.718Z,72.33
2022-11-12T02:04:27.700Z,72.24
2022-11-12T02:05:27.713Z,72.14
2022-11-12T02:06:27.708Z,72.05
2022-11-12T02:07:27.708Z,72.24
2022-11-12T02:08:27.819Z,72.24
2022-11-12T02:09:27.689Z,72.24
2022-11-12T02:10:27.692Z,72.05
2022-11-12T02:11:27.682Z,72.14
2022-11-12T02:12:27.685Z,72.24
2022-11-12T02:13:27.691Z,72.24
2022-11-12T02:14:27.785Z,72.24
2022-11-12T02:15:27.680Z,72.14
2022-11-12T02:16:27.668Z,72.14
2022-11-12T02:17:27.672Z,72.33
2022-11-12T02:18:28.024Z,72.14
2022-11-12T02:19:27.664Z,72.14
2022-11-12T02:20:27.652Z,72.30
2022-11-12T02:21:27.653Z,72.33
2022-11-12T02:22:27.648Z,72.14
2022-11-12T02:23:27.668Z,72.20
2022-11-12T02:24:27.653Z,72.11
2022-11-12T02:25:27.637Z,72.24
2022-11-12T02:26:27.636Z,72.30
2022-11-12T02:27:27.640Z,72.30
2022-11-12T02:28:28.110Z,72.33
2022-11-12T02:29:27.634Z,72.39
2022-11-12T02:30:27.729Z,72.30
2022-11-12T02:31:27.630Z,72.20
2022-11-12T02:32:27.613Z,72.30
2022-11-12T02:33:27.609Z,72.30
2022-11-12T02:34:27.613Z,72.20
2022-11-12T02:35:27.602Z,72.49
2022-11-12T02:36:27.602Z,72.30
2022-11-12T02:37:27.605Z,72.24
2022-11-12T02:38:27.920Z,72.20
2022-11-12T02:39:27.597Z,72.20
2022-11-12T02:40:27.593Z,72.20
2022-11-12T02:41:27.582Z,72.33
2022-11-12T02:42:27.589Z,72.30
2022-11-12T02:43:27.593Z,72.30
2022-11-12T02:44:27.577Z,72.11
2022-11-12T02:45:27.569Z,72.30
2022-11-12T02:46:27.688Z,72.20
2022-11-12T02:47:27.578Z,72.11
2022-11-12T02:48:28.001Z,72.49
2022-11-12T02:49:27.570Z,72.20
2022-11-12T02:50:27.552Z,72.14
2022-11-12T02:51:27.554Z,72.11
2022-11-12T02:52:27.553Z,72.11
2022-11-12T02:53:27.547Z,72.39
2022-11-12T02:54:27.563Z,72.20
2022-11-12T02:55:27.542Z,72.43
2022-11-12T02:56:27.546Z,72.11
2022-11-12T02:57:27.532Z,72.30
2022-11-12T02:58:27.985Z,72.39
2022-11-12T02:59:27.534Z,72.39
2022-11-12T03:00:27.523Z,72.43
2022-11-12T03:01:27.550Z,72.43
2022-11-12T03:02:27.644Z,71.95
2022-11-12T03:03:27.534Z,72.43
2022-11-12T03:04:27.523Z,72.30
2022-11-12T03:05:27.510Z,72.33
2022-11-12T03:06:27.509Z,72.33
2022-11-12T03:07:27.509Z,72.49
2022-11-12T03:08:27.931Z,72.39
2022-11-12T03:09:27.508Z,72.30
2022-11-12T03:10:27.487Z,72.30
2022-11-12T03:11:27.499Z,72.30
2022-11-12T03:12:27.489Z,72.49
2022-11-12T03:13:27.484Z,72.33
2022-11-12T03:14:27.487Z,72.49
2022-11-12T03:15:27.476Z,72.49
2022-11-12T03:16:27.473Z,72.49
2022-11-12T03:17:27.471Z,72.39
2022-11-12T03:18:27.944Z,72.53
2022-11-12T03:19:27.469Z,72.30
2022-11-12T03:20:27.457Z,72.63
2022-11-12T03:21:27.453Z,72.39
2022-11-12T03:22:27.463Z,72.59
2022-11-12T03:23:27.454Z,72.49
2022-11-12T03:24:27.445Z,72.49
2022-11-12T03:25:27.446Z,72.53
2022-11-12T03:26:31.664Z,72.39
2022-11-12T03:27:27.435Z,72.39
2022-11-12T03:28:27.786Z,72.39
2022-11-12T03:29:27.441Z,72.30
2022-11-12T03:30:27.428Z,72.01
2022-11-12T03:31:27.420Z,72.49
2022-11-12T03:32:27.425Z,72.49
2022-11-12T03:33:27.432Z,72.39
2022-11-12T03:34:27.546Z,72.53
2022-11-12T03:35:27.412Z,72.11
2022-11-12T03:36:27.412Z,71.82
2022-11-12T03:37:27.404Z,72.39
2022-11-12T03:38:27.844Z,71.72
2022-11-12T03:39:27.397Z,71.92
2022-11-12T03:40:27.393Z,71.82
2022-11-12T03:41:27.391Z,72.01
2022-11-12T03:42:27.384Z,72.39
2022-11-12T03:43:27.396Z,72.49
2022-11-12T03:44:27.377Z,72.59
2022-11-12T03:45:27.408Z,71.86
2022-11-12T03:46:27.372Z,72.59
2022-11-12T03:47:27.371Z,71.92
2022-11-12T03:48:27.636Z,72.39
2022-11-12T03:49:27.358Z,72.59
2022-11-12T03:50:27.477Z,71.82
2022-11-12T03:51:27.357Z,72.20
2022-11-12T03:52:27.365Z,72.49
2022-11-12T03:53:27.351Z,72.20
2022-11-12T03:54:27.346Z,72.30
2022-11-12T03:55:27.354Z,71.82
2022-11-12T03:56:27.347Z,72.20
2022-11-12T03:57:27.335Z,72.01
2022-11-12T03:58:27.886Z,72.49
2022-11-12T03:59:27.323Z,72.01
2022-11-12T04:00:27.322Z,71.92
2022-11-12T04:01:27.359Z,71.72
2022-11-12T04:02:27.328Z,71.82
2022-11-12T04:03:27.321Z,72.49
2022-11-12T04:04:27.321Z,71.82
2022-11-12T04:05:27.314Z,71.82
2022-11-12T04:06:27.433Z,72.20
2022-11-12T04:07:27.297Z,71.72
2022-11-12T04:08:27.693Z,71.92
2022-11-12T04:09:27.301Z,71.92
2022-11-12T04:10:27.292Z,71.92
2022-11-12T04:11:27.286Z,71.82
2022-11-12T04:12:27.297Z,71.82
2022-11-12T04:13:27.283Z,71.72
2022-11-12T04:14:27.276Z,71.72
2022-11-12T04:15:27.275Z,71.82
2022-11-12T04:16:27.276Z,71.72
2022-11-12T04:17:27.272Z,71.72
2022-11-12T04:18:27.448Z,71.82
2022-11-12T04:19:27.267Z,71.72
2022-11-12T04:20:27.270Z,71.82
2022-11-12T04:21:27.256Z,71.92
2022-11-12T04:22:27.371Z,71.82
2022-11-12T04:23:27.255Z,71.92
2022-11-12T04:24:27.252Z,71.72
2022-11-12T04:25:27.241Z,71.72
2022-11-12T04:26:27.244Z,71.72
2022-11-12T04:27:27.257Z,71.63
2022-11-12T04:28:27.674Z,71.72
2022-11-12T04:29:27.242Z,72.11
2022-11-12T04:30:27.236Z,71.72
2022-11-12T04:31:27.225Z,72.11
2022-11-12T04:32:27.214Z,71.92
2022-11-12T04:33:27.213Z,71.63
2022-11-12T04:34:27.258Z,72.11
2022-11-12T04:35:27.212Z,71.92
2022-11-12T04:36:27.207Z,71.72
2022-11-12T04:37:27.218Z,71.92
2022-11-12T04:38:27.790Z,71.92
2022-11-12T04:39:27.196Z,71.92
2022-11-12T04:40:27.201Z,71.72
2022-11-12T04:41:27.194Z,71.92
2022-11-12T04:42:27.207Z,71.92
2022-11-12T04:43:27.183Z,71.92
2022-11-12T04:44:27.183Z,71.82
2022-11-12T04:45:27.174Z,72.01
2022-11-12T04:46:27.174Z,71.92
2022-11-12T04:47:27.178Z,72.11
2022-11-12T04:48:27.477Z,71.92
2022-11-12T04:49:27.165Z,72.11
2022-11-12T04:50:27.166Z,71.92
2022-11-12T04:51:27.170Z,72.20
2022-11-12T04:52:27.151Z,71.92
2022-11-12T04:53:27.154Z,71.92
2022-11-12T04:54:27.515Z,71.82
2022-11-12T04:55:27.147Z,72.01
2022-11-12T04:56:43.206Z,71.92
2022-11-12T04:57:27.161Z,72.01
2022-11-12T04:58:27.403Z,72.01
2022-11-12T04:59:27.136Z,71.63
2022-11-12T05:00:27.143Z,72.30
2022-11-12T05:01:27.167Z,72.11
2022-11-12T05:02:27.114Z,71.82
2022-11-12T05:03:27.119Z,72.01
2022-11-12T05:04:27.112Z,71.82
2022-11-12T05:05:32.537Z,72.11
2022-11-12T05:06:27.105Z,72.01
2022-11-12T05:08:29.713Z,71.82
2022-11-12T05:09:29.824Z,72.20
2022-11-12T05:10:29.706Z,71.92
2022-11-12T05:11:29.725Z,72.01
2022-11-12T05:12:32.328Z,72.11
2022-11-12T05:13:29.696Z,72.11
2022-11-12T05:14:29.697Z,71.92
2022-11-12T05:15:29.683Z,71.92
2022-11-12T05:16:29.687Z,71.92
2022-11-12T05:17:29.682Z,71.92
2022-11-12T05:18:29.683Z,71.92
2022-11-12T05:19:29.681Z,71.92
2022-11-12T05:20:29.691Z,72.01
2022-11-12T05:21:29.671Z,72.11
2022-11-12T05:22:43.348Z,71.92
2022-11-12T05:23:29.655Z,72.20
2022-11-12T05:24:41.489Z,72.11
2022-11-12T05:25:29.770Z,72.20
2022-11-12T05:26:29.654Z,72.11
2022-11-12T05:27:29.642Z,72.01
2022-11-12T05:28:29.644Z,71.92
2022-11-12T05:29:29.633Z,72.01
2022-11-12T05:30:29.633Z,72.11
2022-11-12T05:31:29.628Z,72.11
2022-11-12T05:32:29.642Z,72.11
2022-11-12T05:33:29.624Z,71.82
2022-11-12T05:34:29.626Z,72.11
2022-11-12T05:35:29.631Z,71.82
2022-11-12T05:36:29.612Z,72.20
2022-11-12T05:37:29.607Z,72.20
2022-11-12T05:38:33.245Z,72.11
2022-11-12T05:39:29.602Z,71.82
2022-11-12T05:40:29.612Z,72.01
2022-11-12T05:41:39.960Z,72.01
2022-11-12T05:42:29.588Z,72.11
2022-11-12T05:43:29.584Z,72.01
2022-11-12T05:44:29.582Z,72.01
2022-11-12T05:45:29.591Z,72.01
2022-11-12T05:46:29.577Z,72.30
2022-11-12T05:47:29.575Z,72.30
2022-11-12T05:48:29.985Z,72.20
2022-11-12T05:49:29.579Z,72.11
2022-11-12T05:50:34.787Z,72.01
2022-11-12T05:51:33.333Z,71.63
2022-11-12T05:52:29.569Z,71.63
2022-11-12T05:53:29.557Z,71.63
2022-11-12T05:54:29.558Z,72.01
2022-11-12T05:55:33.110Z,71.82
2022-11-12T05:56:29.563Z,72.11
2022-11-12T05:57:29.659Z,72.01
2022-11-12T05:58:29.536Z,71.63
2022-11-12T05:59:29.543Z,72.01
2022-11-12T06:00:29.531Z,72.01
2022-11-12T06:01:29.528Z,71.92
2022-11-12T06:02:29.581Z,71.92
2022-11-12T06:03:29.517Z,71.92
2022-11-12T06:04:29.511Z,71.53
2022-11-12T06:05:29.517Z,71.82
2022-11-12T06:06:29.511Z,71.92
2022-11-12T06:07:29.519Z,71.63
2022-11-12T06:08:29.695Z,71.82
2022-11-12T06:09:29.516Z,72.01
2022-11-12T06:10:29.501Z,72.01
2022-11-12T06:11:29.492Z,72.01
2022-11-12T06:12:29.501Z,72.01
2022-11-12T06:13:29.601Z,71.44
2022-11-12T06:14:29.483Z,71.92
2022-11-12T06:15:29.481Z,71.92
2022-11-12T06:16:29.479Z,71.63
2022-11-12T06:17:29.481Z,71.63
2022-11-12T06:18:29.787Z,71.63
2022-11-12T06:19:29.463Z,72.01
2022-11-12T06:20:29.467Z,71.92
2022-11-12T06:21:29.456Z,72.01
2022-11-12T06:22:29.450Z,71.63
2022-11-12T06:23:29.455Z,71.88
2022-11-12T06:24:34.727Z,71.92
2022-11-12T06:25:29.460Z,71.92
2022-11-12T06:26:29.443Z,72.11
2022-11-12T06:27:29.444Z,72.11
2022-11-12T06:28:29.795Z,71.63
2022-11-12T06:29:29.571Z,72.01
2022-11-12T06:30:29.432Z,72.11
2022-11-12T06:31:29.432Z,72.01
2022-11-12T06:32:29.415Z,72.11
2022-11-12T06:33:29.419Z,72.11
2022-11-12T06:34:29.432Z,71.63
2022-11-12T06:35:29.429Z,72.11
2022-11-12T06:36:29.405Z,72.01
2022-11-12T06:37:29.399Z,71.92
2022-11-12T06:38:29.516Z,71.92
2022-11-12T06:39:29.418Z,71.92
2022-11-12T06:40:29.402Z,71.63
2022-11-12T06:41:29.396Z,71.92
2022-11-12T06:42:29.387Z,71.63
2022-11-12T06:43:29.387Z,71.92
2022-11-12T06:44:29.380Z,71.88
2022-11-12T06:45:29.502Z,72.01
2022-11-12T06:46:29.421Z,71.63
2022-11-12T06:47:29.370Z,71.63
2022-11-12T06:48:29.379Z,72.11
2022-11-12T06:49:29.358Z,71.63
2022-11-12T06:50:29.364Z,72.01
2022-11-12T06:51:29.349Z,72.01
2022-11-12T06:52:29.356Z,71.72
2022-11-12T06:53:29.351Z,71.92
2022-11-12T06:54:29.352Z,71.92
2022-11-12T06:55:29.348Z,71.92
2022-11-12T06:56:29.347Z,71.92
2022-11-12T06:57:29.337Z,71.88
2022-11-12T06:58:29.484Z,71.78
2022-11-12T06:59:29.345Z,71.72
2022-11-12T07:00:29.339Z,71.82
2022-11-12T07:01:29.482Z,71.72
2022-11-12T07:02:29.316Z,71.72
2022-11-12T07:03:29.316Z,71.78
2022-11-12T07:04:29.305Z,71.82
2022-11-12T07:05:29.306Z,72.01
2022-11-12T07:06:29.312Z,72.01
2022-11-12T07:07:29.358Z,71.82
2022-11-12T07:08:29.749Z,71.82
2022-11-12T07:09:29.309Z,72.01
2022-11-12T07:10:29.299Z,71.72
2022-11-12T07:11:29.289Z,71.92
2022-11-12T07:12:29.287Z,71.82
2022-11-12T07:13:29.277Z,71.72
2022-11-12T07:14:29.275Z,71.82
2022-11-12T07:15:29.269Z,71.82
2022-11-12T07:16:29.261Z,71.63
2022-11-12T07:17:29.376Z,71.82
2022-11-12T07:18:29.648Z,71.72
2022-11-12T07:19:29.272Z,71.63
2022-11-12T07:20:29.296Z,71.82
2022-11-12T07:21:29.243Z,71.63
2022-11-12T07:22:29.239Z,71.63
2022-11-12T07:23:29.247Z,71.72
2022-11-12T07:24:29.249Z,71.44
2022-11-12T07:25:29.238Z,71.63
2022-11-12T07:26:29.226Z,71.44
2022-11-12T07:27:29.238Z,71.72
2022-11-12T07:28:29.599Z,71.82
2022-11-12T07:29:46.488Z,71.72
2022-11-12T07:30:29.272Z,71.63
2022-11-12T07:31:29.245Z,71.53
2022-11-12T07:32:29.207Z,71.72
2022-11-12T07:33:29.319Z,71.63
2022-11-12T07:34:29.205Z,71.63
2022-11-12T07:35:29.198Z,71.63
2022-11-12T07:36:29.216Z,71.53
2022-11-12T07:37:29.193Z,71.92
2022-11-12T07:38:29.442Z,71.63
2022-11-12T07:39:29.200Z,71.92
2022-11-12T07:40:29.191Z,71.63
2022-11-12T07:41:29.187Z,71.53
2022-11-12T07:42:29.182Z,71.53
2022-11-12T07:43:29.191Z,71.53
2022-11-12T07:44:29.175Z,71.63
2022-11-12T07:45:29.175Z,71.82
2022-11-12T07:46:29.189Z,71.72
2022-11-12T07:47:29.168Z,71.78
2022-11-12T07:48:29.442Z,71.63
2022-11-12T07:49:29.301Z,71.82
2022-11-12T07:50:29.143Z,71.82
2022-11-12T07:51:29.149Z,71.78
2022-11-12T07:52:29.150Z,71.72
2022-11-12T07:53:29.141Z,71.63
2022-11-12T07:54:29.136Z,71.82
2022-11-12T07:55:29.142Z,71.63
2022-11-12T07:56:29.138Z,71.72
2022-11-12T07:57:29.125Z,71.63
2022-11-12T07:58:29.503Z,71.63
2022-11-12T07:59:29.129Z,71.92
2022-11-12T08:00:29.113Z,71.82
2022-11-12T08:01:29.201Z,71.63
2022-11-12T08:02:29.110Z,71.78
2022-11-12T08:03:29.117Z,71.72
2022-11-12T08:04:29.104Z,71.69
2022-11-12T08:05:29.202Z,71.69
2022-11-12T08:06:29.097Z,71.69
2022-11-12T08:07:29.241Z,71.69
2022-11-12T08:08:29.593Z,71.69
2022-11-12T08:09:29.085Z,71.69
2022-11-12T08:10:29.081Z,71.88
2022-11-12T08:11:29.083Z,71.88
2022-11-12T08:12:29.073Z,71.69
2022-11-12T08:13:29.059Z,71.88
2022-11-12T08:14:29.070Z,71.59
2022-11-12T08:15:29.054Z,71.59
2022-11-12T08:16:29.056Z,71.59
2022-11-12T08:17:29.049Z,71.78
2022-11-12T08:18:29.425Z,71.69
2022-11-12T08:19:29.054Z,71.69
2022-11-12T08:20:29.042Z,71.59
2022-11-12T08:21:29.148Z,71.69
2022-11-12T08:22:29.032Z,71.63
2022-11-12T08:23:29.032Z,71.69
2022-11-12T08:24:29.030Z,71.59
2022-11-12T08:25:29.027Z,71.59
2022-11-12T08:26:29.036Z,71.88
2022-11-12T08:27:29.022Z,71.88
2022-11-12T08:28:29.399Z,71.69
2022-11-12T08:29:29.015Z,71.69
2022-11-12T08:30:29.015Z,71.78
2022-11-12T08:31:29.001Z,71.59
2022-11-12T08:32:28.998Z,71.59
2022-11-12T08:33:28.996Z,71.78
2022-11-12T08:34:28.999Z,71.69
2022-11-12T08:35:28.989Z,71.78
2022-11-12T08:36:28.980Z,71.59
2022-11-12T08:37:29.108Z,71.69
2022-11-12T08:38:29.415Z,71.59
2022-11-12T08:39:28.971Z,71.69
2022-11-12T08:40:28.982Z,71.59
2022-11-12T08:41:28.961Z,71.59
2022-11-12T08:42:28.971Z,71.78
2022-11-12T08:43:28.967Z,71.88
2022-11-12T08:44:28.959Z,71.31
2022-11-12T08:45:28.958Z,71.21
2022-11-12T08:46:28.956Z,71.31
2022-11-12T08:47:28.955Z,71.31
2022-11-12T08:48:29.325Z,71.69
2022-11-12T08:49:28.944Z,71.05
2022-11-12T08:50:28.941Z,71.63
2022-11-12T08:51:28.937Z,71.63
2022-11-12T08:52:28.931Z,71.34
2022-11-12T08:53:29.035Z,71.05
2022-11-12T08:54:28.921Z,71.25
2022-11-12T08:55:28.917Z,71.34
2022-11-12T08:56:28.916Z,71.34
2022-11-12T08:57:28.916Z,70.96
2022-11-12T08:58:29.344Z,71.15
2022-11-12T08:59:28.905Z,70.96
2022-11-12T09:00:28.898Z,71.05
2022-11-12T09:01:28.954Z,70.76
2022-11-12T09:02:28.896Z,71.15
2022-11-12T09:03:28.889Z,70.70
2022-11-12T09:04:28.896Z,70.51
2022-11-12T09:05:28.884Z,70.80
2022-11-12T09:06:28.882Z,70.61
2022-11-12T09:07:48.643Z,70.32
2022-11-12T09:08:29.324Z,70.51
2022-11-12T09:09:28.993Z,70.32
2022-11-12T09:10:28.868Z,70.32
2022-11-12T09:11:28.866Z,70.51
2022-11-12T09:12:28.881Z,70.70
2022-11-12T09:13:28.929Z,70.61
2022-11-12T09:14:28.868Z,70.42
2022-11-12T09:15:38.078Z,70.51
2022-11-12T09:16:28.862Z,70.32
2022-11-12T09:17:28.856Z,70.70
2022-11-12T09:18:29.221Z,70.42
2022-11-12T09:19:28.841Z,70.32
2022-11-12T09:20:28.850Z,70.32
2022-11-12T09:21:28.836Z,70.13
2022-11-12T09:22:28.834Z,70.32
2022-11-12T09:23:28.836Z,70.42
2022-11-12T09:24:28.838Z,70.42
2022-11-12T09:25:28.950Z,70.42
2022-11-12T09:26:28.823Z,70.51
2022-11-12T09:27:28.826Z,70.51
2022-11-12T09:28:29.201Z,70.42
2022-11-12T09:29:28.815Z,70.32
2022-11-12T09:30:28.812Z,70.51
2022-11-12T09:31:28.814Z,70.70
2022-11-12T09:32:28.817Z,70.61
2022-11-12T09:33:28.811Z,70.80
2022-11-12T09:34:28.801Z,70.61
2022-11-12T09:35:28.811Z,70.70
2022-11-12T09:36:28.796Z,70.70
2022-11-12T09:37:28.796Z,70.90
2022-11-12T09:38:29.072Z,70.80
2022-11-12T09:39:28.797Z,71.19
2022-11-12T09:40:28.848Z,71.19
2022-11-12T09:41:28.895Z,71.09
2022-11-12T09:42:28.789Z,70.99
2022-11-12T09:43:28.784Z,70.70
2022-11-12T09:44:32.827Z,70.80
2022-11-12T09:45:28.776Z,70.90
2022-11-12T09:46:28.932Z,70.99
2022-11-12T09:47:28.769Z,70.99
2022-11-12T09:48:29.175Z,71.19
2022-11-12T09:49:28.769Z,71.09
2022-11-12T09:50:28.757Z,71.19
2022-11-12T09:51:28.754Z,71.57
2022-11-12T09:52:28.759Z,71.37
2022-11-12T09:53:28.750Z,71.19
2022-11-12T09:54:28.743Z,71.37
2022-11-12T09:55:28.744Z,71.37
2022-11-12T09:56:28.744Z,71.31
2022-11-12T09:57:28.857Z,71.37
2022-11-12T09:58:29.249Z,71.19
2022-11-12T09:59:28.738Z,71.37
2022-11-12T10:00:28.728Z,71.09
2022-11-12T10:01:28.781Z,71.37
2022-11-12T10:02:28.730Z,71.37
2022-11-12T10:03:28.721Z,71.47
2022-11-12T10:04:28.719Z,71.19
2022-11-12T10:05:28.715Z,71.86
2022-11-12T10:06:28.714Z,71.76
2022-11-12T10:07:28.704Z,71.09
2022-11-12T10:08:29.071Z,71.09
2022-11-12T10:09:28.701Z,71.19
2022-11-12T10:10:28.699Z,71.76
2022-11-12T10:11:28.705Z,71.86
2022-11-12T10:12:28.692Z,71.47
2022-11-12T10:13:28.799Z,71.57
2022-11-12T10:14:28.687Z,71.57
2022-11-12T10:15:28.698Z,71.37
2022-11-12T10:16:28.689Z,71.57
2022-11-12T10:17:28.679Z,71.19
2022-11-12T10:18:29.077Z,71.28
2022-11-12T10:19:28.675Z,71.47
2022-11-12T10:20:28.676Z,71.37
2022-11-12T10:21:28.680Z,71.37
2022-11-12T10:22:28.673Z,71.86
2022-11-12T10:23:28.666Z,71.86
2022-11-12T10:24:28.663Z,71.86
2022-11-12T10:25:28.660Z,71.66
2022-11-12T10:26:28.658Z,71.76
2022-11-12T10:27:28.662Z,71.66
2022-11-12T10:28:31.036Z,71.86
2022-11-12T10:29:28.766Z,71.76
2022-11-12T10:30:28.658Z,71.66
2022-11-12T10:31:28.645Z,71.66
2022-11-12T10:32:28.639Z,71.57
2022-11-12T10:33:28.639Z,71.86
2022-11-12T10:34:28.627Z,71.66
2022-11-12T10:35:28.624Z,71.76
2022-11-12T10:36:28.626Z,71.86
2022-11-12T10:37:28.619Z,71.86
2022-11-12T10:38:29.104Z,71.76
2022-11-12T10:39:28.622Z,71.76
2022-11-12T10:40:28.615Z,71.57
2022-11-12T10:41:28.610Z,72.05
2022-11-12T10:42:28.615Z,71.66
2022-11-12T10:43:28.613Z,72.33
2022-11-12T10:44:28.607Z,72.43
2022-11-12T10:45:28.825Z,72.05
2022-11-12T10:46:28.594Z,72.14
2022-11-12T10:47:28.595Z,72.05
2022-11-12T10:48:29.244Z,72.14
2022-11-12T10:49:28.593Z,71.95
2022-11-12T10:50:28.594Z,71.86
2022-11-12T10:51:28.594Z,72.14
2022-11-12T10:52:28.579Z,71.86
2022-11-12T10:53:28.580Z,71.76
2022-11-12T10:54:28.573Z,72.63
2022-11-12T10:55:28.594Z,71.95
2022-11-12T10:56:28.574Z,72.43
2022-11-12T10:57:28.574Z,72.43
2022-11-12T10:58:28.885Z,72.33
2022-11-12T10:59:28.556Z,72.43
2022-11-12T11:00:28.562Z,72.43
2022-11-12T11:01:32.180Z,72.14
2022-11-12T11:02:28.586Z,72.14
2022-11-12T11:03:28.550Z,72.24
2022-11-12T11:04:28.556Z,72.14
2022-11-12T11:05:28.537Z,72.33
2022-11-12T11:06:28.543Z,72.33
2022-11-12T11:07:28.554Z,72.33
2022-11-12T11:08:34.509Z,72.24
2022-11-12T11:09:28.531Z,72.63
2022-11-12T11:10:28.560Z,72.63
2022-11-12T11:11:28.529Z,72.53
2022-11-12T11:12:28.529Z,72.53
2022-11-12T11:13:28.519Z,72.63
2022-11-12T11:14:28.524Z,72.53
2022-11-12T11:15:28.519Z,72.53
2022-11-12T11:16:28.543Z,72.63
2022-11-12T11:17:28.624Z,72.33
2022-11-12T11:18:28.764Z,72.33
2022-11-12T11:19:28.503Z,72.53
2022-11-12T11:20:28.502Z,72.43
2022-11-12T11:21:28.497Z,72.63
2022-11-12T11:22:28.489Z,72.63
2022-11-12T11:23:28.484Z,72.43
2022-11-12T11:24:28.488Z,72.81
2022-11-12T11:25:28.489Z,72.43
2022-11-12T11:26:28.502Z,72.43
2022-11-12T11:27:28.481Z,72.53
2022-11-12T11:28:28.928Z,72.53
2022-11-12T11:29:28.479Z,72.53
2022-11-12T11:30:28.487Z,72.33
2022-11-12T11:31:28.464Z,72.43
2022-11-12T11:32:30.993Z,72.43
2022-11-12T11:33:28.575Z,72.33
2022-11-12T11:34:28.455Z,72.91
2022-11-12T11:35:28.466Z,72.91
2022-11-12T11:36:28.466Z,72.63
2022-11-12T11:37:28.453Z,72.63
2022-11-12T11:38:28.679Z,72.72
2022-11-12T11:39:28.449Z,72.43
2022-11-12T11:40:28.443Z,72.53
2022-11-12T11:41:28.458Z,72.53
2022-11-12T11:42:28.447Z,72.53
2022-11-12T11:43:28.435Z,72.53
2022-11-12T11:44:28.521Z,72.43
2022-11-12T11:45:28.428Z,72.43
2022-11-12T11:46:28.422Z,72.63
2022-11-12T11:47:38.904Z,72.53
2022-11-12T11:48:28.818Z,72.53
2022-11-12T11:49:28.524Z,72.63
2022-11-12T11:50:28.410Z,72.63
2022-11-12T11:51:28.409Z,72.53
2022-11-12T11:52:28.409Z,72.53
2022-11-12T11:53:28.438Z,73.30
2022-11-12T11:54:28.409Z,72.72
2022-11-12T11:55:28.396Z,73.30
2022-11-12T11:56:28.395Z,72.72
2022-11-12T11:57:28.395Z,72.63
2022-11-12T11:58:28.678Z,72.91
2022-11-12T11:59:28.388Z,72.91
2022-11-12T12:00:28.386Z,73.10
2022-11-12T12:01:28.394Z,72.91
2022-11-12T12:02:28.377Z,73.00
2022-11-12T12:03:32.726Z,72.91
2022-11-12T12:04:28.372Z,73.20
2022-11-12T12:05:28.486Z,73.10
2022-11-12T12:06:28.368Z,72.72
2022-11-12T12:07:28.375Z,72.81
2022-11-12T12:08:28.708Z,73.10
2022-11-12T12:09:28.362Z,72.81
2022-11-12T12:10:53.475Z,72.81
2022-11-12T12:11:28.356Z,72.81
2022-11-12T12:12:28.353Z,72.81
2022-11-12T12:13:28.357Z,72.81
2022-11-12T12:14:28.353Z,73.00
2022-11-12T12:15:28.348Z,72.91
2022-11-12T12:16:28.349Z,72.81
2022-11-12T12:17:31.902Z,73.00
2022-11-12T12:18:28.791Z,73.00
2022-11-12T12:19:28.338Z,72.72
2022-11-12T12:20:28.328Z,72.91
2022-11-12T12:21:28.437Z,72.81
2022-11-12T12:22:28.324Z,72.81
2022-11-12T12:23:28.326Z,72.91
2022-11-12T12:24:28.324Z,72.91
2022-11-12T12:25:28.311Z,72.81
2022-11-12T12:26:28.310Z,72.81
2022-11-12T12:27:28.315Z,72.72
2022-11-12T12:28:28.685Z,73.00
2022-11-12T12:29:28.300Z,73.10
2022-11-12T12:30:28.295Z,72.72
2022-11-12T12:31:28.295Z,72.81
2022-11-12T12:32:28.298Z,73.10
2022-11-12T12:33:28.316Z,72.81
2022-11-12T12:34:28.287Z,73.20
2022-11-12T12:35:28.292Z,73.10
2022-11-12T12:36:28.280Z,72.81
2022-11-12T12:37:28.399Z,72.81
2022-11-12T12:38:28.681Z,73.30
2022-11-12T12:39:28.298Z,73.20
2022-11-12T12:40:28.285Z,73.39
2022-11-12T12:41:28.266Z,73.30
2022-11-12T12:42:28.261Z,73.30
2022-11-12T12:43:28.269Z,73.20
2022-11-12T12:44:28.261Z,73.20
2022-11-12T12:45:31.952Z,73.20
2022-11-12T12:46:28.261Z,73.10
2022-11-12T12:47:28.261Z,73.30
2022-11-12T12:48:28.479Z,73.10
2022-11-12T12:49:28.259Z,73.30
2022-11-12T12:50:28.244Z,73.39
2022-11-12T12:51:28.245Z,73.20
2022-11-12T12:52:28.236Z,72.81
2022-11-12T12:53:28.355Z,73.00